Bf Esperanza — V2BR8 — position and weather

sailwx.info

Track history (hours):
 
Tides and Currents Weather Stations Pressure Air Temp Water Temp Dewpoint Dewpoint Depression Visibility Wind Speed Wind Dir Waves Ship Positions

Bf Esperanza

Last reported at 2015-Jul-30 05:31 UTC. Time now 2015-Jul-31 01:02 UTC.
Position N 36°19' E 000°06'.

Length 135 m; draft 6.8 m.

Type: Ship (hazmat cat A). MMSI: 304907000.

Date/timePositionNaut miles runAvg speedWind from/ knotsBaromVisibWave heightAir tempDewpointWater temp
2015-Jul-30 05:31N 36°19' E 000°06'5015.7
2015-Jul-30 02:23N 36°04' W 000°52'75 2.4
2015-Jul-28 19:26N 35°06' W 001°52'2 1.1
2015-Jul-28 17:32N 35°07' W 001°54'7 2.4
2015-Jul-28 14:31N 35°13' W 001°50'1313.2
2015-Jul-28 13:33N 35°24' W 001°42'8313.8
2015-Jul-28 07:33N 36°38' W 000°55'1413.9
2015-Jul-28 06:33N 36°50' W 000°48'1413.8
2015-Jul-28 05:33N 37°03' W 000°40'1413.9
2015-Jul-28 04:33N 37°15' W 000°32'1414.2
2015-Jul-28 03:33N 37°28' W 000°24'1414.1
2015-Jul-28 02:32N 37°41' W 000°16'1414.5
2015-Jul-28 01:33N 37°53' W 000°08'1514.4
2015-Jul-28 00:30N 38°07' E 000°01'1314.2
2015-Jul-27 23:33N 38°19' E 000°07'1414.3
2015-Jul-27 22:33N 38°32' E 000°15'1414.3
2015-Jul-27 21:33N 38°45' E 000°24'80 1.7
2015-Jul-25 23:17N 39°59' E 001°04'1213.8
2015-Jul-25 22:26N 40°09' E 001°11'1313.8
2015-Jul-25 21:30N 40°21' E 001°18'1913.9
2015-Jul-25 20:09N 40°38' E 001°29'914.0
2015-Jul-25 19:31N 40°44' E 001°37'17314.2
2015-Jul-25 07:19N 42°60' E 004°01'1113.9
2015-Jul-25 06:33N 43°05' E 004°13'1313.3
2015-Jul-25 05:33N 43°07' E 004°32'1313.4
2015-Jul-25 04:33N 43°09' E 004°50'1413.6
2015-Jul-25 03:33N 43°10' E 005°08'1312.6
2015-Jul-25 02:33N 43°21' E 005°18'1 1.1
2015-Jul-25 01:21N 43°21' E 005°20'0 0.0
2015-Jul-25 00:33N 43°21' E 005°20'0 0.0
2015-Jul-24 22:26N 43°21' E 005°20'0 0.0
2015-Jul-24 20:31N 43°21' E 005°20'0 0.0
2015-Jul-24 17:30N 43°21' E 005°20'0 0.0
2015-Jul-24 16:29N 43°21' E 005°20'0 0.0
2015-Jul-24 15:29N 43°21' E 005°20'0 0.0
2015-Jul-24 14:28N 43°21' E 005°20'0 0.0
2015-Jul-24 11:33N 43°21' E 005°20'0 0.0
2015-Jul-24 09:26N 43°21' E 005°20'0 0.0
2015-Jul-24 08:22N 43°21' E 005°20'0 0.0
2015-Jul-24 07:19N 43°21' E 005°20'0 0.0
2015-Jul-24 06:31N 43°21' E 005°20'0 0.0
2015-Jul-24 05:30N 43°21' E 005°20'0 0.0
2015-Jul-24 03:30N 43°21' E 005°20'0 0.0
2015-Jul-24 02:32N 43°21' E 005°20'0 0.0
2015-Jul-24 01:29N 43°21' E 005°20'0 0.0
2015-Jul-24 00:21N 43°21' E 005°20'0 0.0
2015-Jul-23 23:31N 43°21' E 005°20'6 5.8
2015-Jul-23 22:33N 43°18' E 005°14'1010.4
2015-Jul-23 21:33N 43°08' E 005°18'1413.5
2015-Jul-23 20:33N 43°01' E 005°34'1413.7
2015-Jul-23 19:33N 42°56' E 005°51'1414.1
2015-Jul-23 18:33N 42°52' E 006°10'1514.5
2015-Jul-23 17:33N 42°52' E 006°29'1413.7
2015-Jul-23 16:33N 42°56' E 006°47'1514.3
2015-Jul-23 15:32N 43°05' E 007°04'1414.1
2015-Jul-23 14:33N 43°13' E 007°19'1414.2
2015-Jul-23 13:34N 43°21' E 007°35'1414.3
2015-Jul-23 12:33N 43°30' E 007°50'1414.1
2015-Jul-23 11:33N 43°40' E 008°04'1414.3
2015-Jul-23 10:33N 43°50' E 008°18'1513.9
2015-Jul-23 09:30N 44°01' E 008°32'1314.0
2015-Jul-23 08:33N 44°10' E 008°45'1413.9
2015-Jul-23 07:33N 44°21' E 008°57'4 4.1
2015-Jul-23 06:31N 44°24' E 008°54'4749.3
2015-Jul-23 05:34N 43°44' E 008°20'4746.3
2015-Jul-23 04:32N 44°24' E 008°54'0 0.0
2015-Jul-23 03:32N 44°24' E 008°54'0 0.0
2015-Jul-23 02:31N 44°24' E 008°54'0 0.0
2015-Jul-23 01:31N 44°24' E 008°54'0 0.0
2015-Jul-23 00:31N 44°24' E 008°54'0 0.0
2015-Jul-22 23:33N 44°24' E 008°54'0 0.0
2015-Jul-22 22:33N 44°24' E 008°54'0 0.0
2015-Jul-22 21:32N 44°24' E 008°54'0 0.0
2015-Jul-22 20:32N 44°24' E 008°54'0 0.0
2015-Jul-22 19:31N 44°24' E 008°54'0 0.0
2015-Jul-22 18:33N 44°24' E 008°54'6 5.6
2015-Jul-22 17:33N 44°19' E 008°58'5 4.9
2015-Jul-22 16:33N 44°16' E 008°53'0 0.1
2015-Jul-22 15:33N 44°16' E 008°53'0 0.1
2015-Jul-22 14:33N 44°16' E 008°53'0 0.1
2015-Jul-22 13:33N 44°16' E 008°53'0 0.1
2015-Jul-22 12:33N 44°16' E 008°52'0 0.1
2015-Jul-22 11:33N 44°16' E 008°52'1 0.7
2015-Jul-22 10:33N 44°16' E 008°53'1414.2
2015-Jul-22 09:33N 44°12' E 009°12'1414.5
2015-Jul-22 08:34N 44°06' E 009°31'1414.1
2015-Jul-22 07:33N 43°59' E 009°48'8 7.3
2015-Jul-22 06:31N 44°07' E 009°51'0 0.0
2015-Jul-22 05:31N 44°07' E 009°51'0 0.0
2015-Jul-22 04:33N 44°07' E 009°51'0 0.0
2015-Jul-22 03:33N 44°07' E 009°51'0 0.0
2015-Jul-22 02:32N 44°07' E 009°51'0 0.0
2015-Jul-22 01:32N 44°07' E 009°51'0 0.0
2015-Jul-22 00:28N 44°07' E 009°51'0 0.0
2015-Jul-21 23:31N 44°07' E 009°51'0 0.0
2015-Jul-21 22:31N 44°07' E 009°51'0 0.0
2015-Jul-21 21:32N 44°07' E 009°51'0 0.0
2015-Jul-21 20:32N 44°07' E 009°51'0 0.0
2015-Jul-21 19:31N 44°07' E 009°51'0 0.0
2015-Jul-21 18:31N 44°07' E 009°51'0 0.0
2015-Jul-21 17:33N 44°07' E 009°51'0 0.0
2015-Jul-21 16:33N 44°07' E 009°51'0 0.0
2015-Jul-21 15:32N 44°07' E 009°51'0 0.0
2015-Jul-21 14:29N 44°07' E 009°51'0 0.0
2015-Jul-21 13:28N 44°07' E 009°51'0 0.0
2015-Jul-21 12:31N 44°07' E 009°51'0 0.0
2015-Jul-21 11:31N 44°07' E 009°51'0 0.0
2015-Jul-21 10:33N 44°07' E 009°51'0 0.0
2015-Jul-21 09:30N 44°07' E 009°51'0 0.0
2015-Jul-21 08:32N 44°07' E 009°51'0 0.0
2015-Jul-21 07:32N 44°07' E 009°51'0 0.0
2015-Jul-21 06:31N 44°07' E 009°51'4 4.4
2015-Jul-21 05:33N 44°03' E 009°53'1111.4
2015-Jul-21 04:33N 43°51' E 009°54'9 9.0
2015-Jul-21 03:33N 43°44' E 009°48'1514.6
2015-Jul-21 02:33N 43°31' E 009°37'1414.2
2015-Jul-21 01:33N 43°17' E 009°34'1515.1
2015-Jul-21 00:33N 43°02' E 009°37'1515.2
2015-Jul-20 23:33N 42°47' E 009°41'1515.2
2015-Jul-20 22:33N 42°32' E 009°44'1515.1
2015-Jul-20 21:33N 42°17' E 009°47'1615.0
2015-Jul-20 20:29N 42°02' E 009°49'1415.1
2015-Jul-20 19:33N 41°48' E 009°50'1515.0
2015-Jul-20 18:33N 41°33' E 009°52'1414.6
2015-Jul-20 17:33N 41°18' E 009°54'1514.7
2015-Jul-20 16:33N 41°03' E 009°56'4010.0
2015-Jul-20 12:33N 40°24' E 010°04'19 4.5
2015-Jul-20 08:17N 40°06' E 009°55'3214.6
2015-Jul-20 06:07N 39°35' E 009°48'  
Track history (hours):
 
Tides and Currents Weather Stations Pressure Air Temp Water Temp Dewpoint Dewpoint Depression Visibility Wind Speed Wind Dir Waves Ship Positions

Bf Esperanza

Last reported at 2015-Jul-30 05:31 UTC. Time now 2015-Jul-31 01:02 UTC.
Position N 36°19' E 000°06'.

Length 135 m; draft 6.8 m.

Type: Ship (hazmat cat A). MMSI: 304907000.

Date/timePositionNaut miles runAvg speedWind from/ knotsBaromVisibWave heightAir tempDewpointWater temp
2015-Jul-30 05:31N 36°19' E 000°06'5015.7
2015-Jul-30 02:23N 36°04' W 000°52'75 2.4
2015-Jul-28 19:26N 35°06' W 001°52'2 1.1
2015-Jul-28 17:32N 35°07' W 001°54'7 2.4
2015-Jul-28 14:31N 35°13' W 001°50'1313.2
2015-Jul-28 13:33N 35°24' W 001°42'8313.8
2015-Jul-28 07:33N 36°38' W 000°55'1413.9
2015-Jul-28 06:33N 36°50' W 000°48'1413.8
2015-Jul-28 05:33N 37°03' W 000°40'1413.9
2015-Jul-28 04:33N 37°15' W 000°32'1414.2
2015-Jul-28 03:33N 37°28' W 000°24'1414.1
2015-Jul-28 02:32N 37°41' W 000°16'1414.5
2015-Jul-28 01:33N 37°53' W 000°08'1514.4
2015-Jul-28 00:30N 38°07' E 000°01'1314.2
2015-Jul-27 23:33N 38°19' E 000°07'1414.3
2015-Jul-27 22:33N 38°32' E 000°15'1414.3
2015-Jul-27 21:33N 38°45' E 000°24'80 1.7
2015-Jul-25 23:17N 39°59' E 001°04'1213.8
2015-Jul-25 22:26N 40°09' E 001°11'1313.8
2015-Jul-25 21:30N 40°21' E 001°18'1913.9
2015-Jul-25 20:09N 40°38' E 001°29'914.0
2015-Jul-25 19:31N 40°44' E 001°37'17314.2
2015-Jul-25 07:19N 42°60' E 004°01'1113.9
2015-Jul-25 06:33N 43°05' E 004°13'1313.3
2015-Jul-25 05:33N 43°07' E 004°32'1313.4
2015-Jul-25 04:33N 43°09' E 004°50'1413.6
2015-Jul-25 03:33N 43°10' E 005°08'1312.6
2015-Jul-25 02:33N 43°21' E 005°18'1 1.1
2015-Jul-25 01:21N 43°21' E 005°20'0 0.0
2015-Jul-25 00:33N 43°21' E 005°20'0 0.0
2015-Jul-24 22:26N 43°21' E 005°20'0 0.0
2015-Jul-24 20:31N 43°21' E 005°20'0 0.0
2015-Jul-24 17:30N 43°21' E 005°20'0 0.0
2015-Jul-24 16:29N 43°21' E 005°20'0 0.0
2015-Jul-24 15:29N 43°21' E 005°20'0 0.0
2015-Jul-24 14:28N 43°21' E 005°20'0 0.0
2015-Jul-24 11:33N 43°21' E 005°20'0 0.0
2015-Jul-24 09:26N 43°21' E 005°20'0 0.0
2015-Jul-24 08:22N 43°21' E 005°20'0 0.0
2015-Jul-24 07:19N 43°21' E 005°20'0 0.0
2015-Jul-24 06:31N 43°21' E 005°20'0 0.0
2015-Jul-24 05:30N 43°21' E 005°20'0 0.0
2015-Jul-24 03:30N 43°21' E 005°20'0 0.0
2015-Jul-24 02:32N 43°21' E 005°20'0 0.0
2015-Jul-24 01:29N 43°21' E 005°20'0 0.0
2015-Jul-24 00:21N 43°21' E 005°20'0 0.0
2015-Jul-23 23:31N 43°21' E 005°20'6 5.8
2015-Jul-23 22:33N 43°18' E 005°14'1010.4
2015-Jul-23 21:33N 43°08' E 005°18'1413.5
2015-Jul-23 20:33N 43°01' E 005°34'1413.7
2015-Jul-23 19:33N 42°56' E 005°51'1414.1
2015-Jul-23 18:33N 42°52' E 006°10'1514.5
2015-Jul-23 17:33N 42°52' E 006°29'1413.7
2015-Jul-23 16:33N 42°56' E 006°47'1514.3
2015-Jul-23 15:32N 43°05' E 007°04'1414.1
2015-Jul-23 14:33N 43°13' E 007°19'1414.2
2015-Jul-23 13:34N 43°21' E 007°35'1414.3
2015-Jul-23 12:33N 43°30' E 007°50'1414.1
2015-Jul-23 11:33N 43°40' E 008°04'1414.3
2015-Jul-23 10:33N 43°50' E 008°18'1513.9
2015-Jul-23 09:30N 44°01' E 008°32'1314.0
2015-Jul-23 08:33N 44°10' E 008°45'1413.9
2015-Jul-23 07:33N 44°21' E 008°57'4 4.1
2015-Jul-23 06:31N 44°24' E 008°54'4749.3
2015-Jul-23 05:34N 43°44' E 008°20'4746.3
2015-Jul-23 04:32N 44°24' E 008°54'0 0.0
2015-Jul-23 03:32N 44°24' E 008°54'0 0.0
2015-Jul-23 02:31N 44°24' E 008°54'0 0.0
2015-Jul-23 01:31N 44°24' E 008°54'0 0.0
2015-Jul-23 00:31N 44°24' E 008°54'0 0.0
2015-Jul-22 23:33N 44°24' E 008°54'0 0.0
2015-Jul-22 22:33N 44°24' E 008°54'0 0.0
2015-Jul-22 21:32N 44°24' E 008°54'0 0.0
2015-Jul-22 20:32N 44°24' E 008°54'0 0.0
2015-Jul-22 19:31N 44°24' E 008°54'0 0.0
2015-Jul-22 18:33N 44°24' E 008°54'6 5.6
2015-Jul-22 17:33N 44°19' E 008°58'5 4.9
2015-Jul-22 16:33N 44°16' E 008°53'0 0.1
2015-Jul-22 15:33N 44°16' E 008°53'0 0.1
2015-Jul-22 14:33N 44°16' E 008°53'0 0.1
2015-Jul-22 13:33N 44°16' E 008°53'0 0.1
2015-Jul-22 12:33N 44°16' E 008°52'0 0.1
2015-Jul-22 11:33N 44°16' E 008°52'1 0.7
2015-Jul-22 10:33N 44°16' E 008°53'1414.2
2015-Jul-22 09:33N 44°12' E 009°12'1414.5
2015-Jul-22 08:34N 44°06' E 009°31'1414.1
2015-Jul-22 07:33N 43°59' E 009°48'8 7.3
2015-Jul-22 06:31N 44°07' E 009°51'0 0.0
2015-Jul-22 05:31N 44°07' E 009°51'0 0.0
2015-Jul-22 04:33N 44°07' E 009°51'0 0.0
2015-Jul-22 03:33N 44°07' E 009°51'0 0.0
2015-Jul-22 02:32N 44°07' E 009°51'0 0.0
2015-Jul-22 01:32N 44°07' E 009°51'0 0.0
2015-Jul-22 00:28N 44°07' E 009°51'0 0.0
2015-Jul-21 23:31N 44°07' E 009°51'0 0.0
2015-Jul-21 22:31N 44°07' E 009°51'0 0.0
2015-Jul-21 21:32N 44°07' E 009°51'0 0.0
2015-Jul-21 20:32N 44°07' E 009°51'0 0.0
2015-Jul-21 19:31N 44°07' E 009°51'0 0.0
2015-Jul-21 18:31N 44°07' E 009°51'0 0.0
2015-Jul-21 17:33N 44°07' E 009°51'0 0.0
2015-Jul-21 16:33N 44°07' E 009°51'0 0.0
2015-Jul-21 15:32N 44°07' E 009°51'0 0.0
2015-Jul-21 14:29N 44°07' E 009°51'0 0.0
2015-Jul-21 13:28N 44°07' E 009°51'0 0.0
2015-Jul-21 12:31N 44°07' E 009°51'0 0.0
2015-Jul-21 11:31N 44°07' E 009°51'0 0.0
2015-Jul-21 10:33N 44°07' E 009°51'0 0.0
2015-Jul-21 09:30N 44°07' E 009°51'0 0.0
2015-Jul-21 08:32N 44°07' E 009°51'0 0.0
2015-Jul-21 07:32N 44°07' E 009°51'0 0.0
2015-Jul-21 06:31N 44°07' E 009°51'4 4.4
2015-Jul-21 05:33N 44°03' E 009°53'1111.4
2015-Jul-21 04:33N 43°51' E 009°54'9 9.0
2015-Jul-21 03:33N 43°44' E 009°48'1514.6
2015-Jul-21 02:33N 43°31' E 009°37'1414.2
2015-Jul-21 01:33N 43°17' E 009°34'1515.1
2015-Jul-21 00:33N 43°02' E 009°37'1515.2
2015-Jul-20 23:33N 42°47' E 009°41'1515.2
2015-Jul-20 22:33N 42°32' E 009°44'1515.1
2015-Jul-20 21:33N 42°17' E 009°47'1615.0
2015-Jul-20 20:29N 42°02' E 009°49'1415.1
2015-Jul-20 19:33N 41°48' E 009°50'1515.0
2015-Jul-20 18:33N 41°33' E 009°52'1414.6
2015-Jul-20 17:33N 41°18' E 009°54'1514.7
2015-Jul-20 16:33N 41°03' E 009°56'4010.0
2015-Jul-20 12:33N 40°24' E 010°04'19 4.5
2015-Jul-20 08:17N 40°06' E 009°55'3214.6
2015-Jul-20 06:07N 39°35' E 009°48'  

Dump ship's entire track history